New Cypress, Kentucky
Current Conditions -  °F | °C
As of 2:15 PM on Sunday 21 Dec 2014 (Local Time) from KUCY Reporting Station
Clear Clear  
Wind Chill:   Ceiling: Unl
Heat Index:   Visibility: 10mi
Dew Point:   Wind: 3mph
Humidity: 57%   Direction: 160°SSE
Pressure: 30.07"   Gusts: NA
Location:  36.6807°N, 88.9572°W
Report Text: KUCY 212015Z AUTO 16003KT 10SM CLR 09/01 A3007 RMK
Loading
Personal Weather Stations






























Interactive Weather Map New forecast layout! Learn more

10-Day Weather Forecast

Advertisements
Track Severe Weather on mobile